sensor_id;sensor_type;location;lat;lon;timestamp;P1;durP1;ratioP1;P2;durP2;ratioP2
7575;SDS011;3829;50.798;4.358;2022-09-09T00:04:31;3.13;;;1.67;;
7575;SDS011;3829;50.798;4.358;2022-09-09T00:12:32;4.43;;;1.97;;
7575;SDS011;3829;50.798;4.358;2022-09-09T00:15:14;7.70;;;2.00;;
7575;SDS011;3829;50.798;4.358;2022-09-09T00:20:37;4.67;;;1.57;;
7575;SDS011;3829;50.798;4.358;2022-09-09T00:23:30;5.00;;;1.77;;
7575;SDS011;3829;50.798;4.358;2022-09-09T00:28:27;6.43;;;1.90;;
7575;SDS011;3829;50.798;4.358;2022-09-09T00:30:59;4.37;;;1.60;;
7575;SDS011;3829;50.798;4.358;2022-09-09T00:33:33;9.93;;;1.90;;
7575;SDS011;3829;50.798;4.358;2022-09-09T00:36:00;4.50;;;1.80;;
7575;SDS011;3829;50.798;4.358;2022-09-09T00:38:33;3.83;;;1.67;;
7575;SDS011;3829;50.798;4.358;2022-09-09T00:55:08;5.80;;;1.80;;
7575;SDS011;3829;50.798;4.358;2022-09-09T00:57:38;8.50;;;1.87;;
7575;SDS011;3829;50.798;4.358;2022-09-09T01:11:22;7.40;;;1.90;;
7575;SDS011;3829;50.798;4.358;2022-09-09T01:16:50;8.20;;;2.00;;
7575;SDS011;3829;50.798;4.358;2022-09-09T01:19:36;9.73;;;2.50;;
7575;SDS011;3829;50.798;4.358;2022-09-09T01:27:46;10.97;;;2.30;;
7575;SDS011;3829;50.798;4.358;2022-09-09T01:30:15;7.03;;;2.43;;
7575;SDS011;3829;50.798;4.358;2022-09-09T01:35:11;8.57;;;2.20;;
7575;SDS011;3829;50.798;4.358;2022-09-09T01:37:52;10.67;;;2.37;;
7575;SDS011;3829;50.798;4.358;2022-09-09T01:40:18;12.87;;;2.30;;
7575;SDS011;3829;50.798;4.358;2022-09-09T01:42:43;9.43;;;2.27;;
7575;SDS011;3829;50.798;4.358;2022-09-09T01:45:09;9.23;;;2.23;;
7575;SDS011;3829;50.798;4.358;2022-09-09T01:47:35;8.13;;;2.60;;
7575;SDS011;3829;50.798;4.358;2022-09-09T01:50:01;8.77;;;2.80;;
7575;SDS011;3829;50.798;4.358;2022-09-09T01:52:28;5.77;;;2.73;;
7575;SDS011;3829;50.798;4.358;2022-09-09T01:54:54;12.50;;;3.10;;
7575;SDS011;3829;50.798;4.358;2022-09-09T01:57:23;13.23;;;3.00;;
7575;SDS011;3829;50.798;4.358;2022-09-09T01:59:58;13.73;;;3.73;;
7575;SDS011;3829;50.798;4.358;2022-09-09T02:05:24;10.33;;;2.83;;
7575;SDS011;3829;50.798;4.358;2022-09-09T02:07:59;6.63;;;2.63;;
7575;SDS011;3829;50.798;4.358;2022-09-09T02:10:31;8.20;;;2.33;;
7575;SDS011;3829;50.798;4.358;2022-09-09T02:13:07;9.03;;;2.97;;
7575;SDS011;3829;50.798;4.358;2022-09-09T02:18:42;8.37;;;2.87;;
7575;SDS011;3829;50.798;4.358;2022-09-09T02:21:18;11.47;;;3.20;;
7575;SDS011;3829;50.798;4.358;2022-09-09T02:23:44;18.40;;;3.40;;
7575;SDS011;3829;50.798;4.358;2022-09-09T02:26:16;10.37;;;2.90;;
7575;SDS011;3829;50.798;4.358;2022-09-09T02:28:46;10.57;;;3.17;;
7575;SDS011;3829;50.798;4.358;2022-09-09T02:31:15;9.63;;;2.67;;
7575;SDS011;3829;50.798;4.358;2022-09-09T02:33:44;8.93;;;2.83;;
7575;SDS011;3829;50.798;4.358;2022-09-09T02:36:15;7.30;;;2.50;;
7575;SDS011;3829;50.798;4.358;2022-09-09T02:38:44;9.47;;;2.87;;
7575;SDS011;3829;50.798;4.358;2022-09-09T02:41:15;7.03;;;2.50;;
7575;SDS011;3829;50.798;4.358;2022-09-09T02:43:46;11.17;;;3.37;;
7575;SDS011;3829;50.798;4.358;2022-09-09T02:46:18;13.37;;;3.07;;
7575;SDS011;3829;50.798;4.358;2022-09-09T02:51:18;8.80;;;2.73;;
7575;SDS011;3829;50.798;4.358;2022-09-09T02:56:51;10.90;;;2.57;;
7575;SDS011;3829;50.798;4.358;2022-09-09T02:59:20;11.40;;;2.57;;
7575;SDS011;3829;50.798;4.358;2022-09-09T03:01:46;11.80;;;3.10;;
7575;SDS011;3829;50.798;4.358;2022-09-09T03:04:12;18.53;;;3.13;;
7575;SDS011;3829;50.798;4.358;2022-09-09T03:06:38;8.97;;;2.63;;
7575;SDS011;3829;50.798;4.358;2022-09-09T03:09:04;5.53;;;2.20;;
7575;SDS011;3829;50.798;4.358;2022-09-09T03:11:30;12.83;;;2.93;;
7575;SDS011;3829;50.798;4.358;2022-09-09T03:13:55;14.80;;;2.93;;
7575;SDS011;3829;50.798;4.358;2022-09-09T03:16:22;11.10;;;2.93;;
7575;SDS011;3829;50.798;4.358;2022-09-09T03:18:48;9.17;;;3.03;;
7575;SDS011;3829;50.798;4.358;2022-09-09T03:21:14;18.50;;;3.87;;
7575;SDS011;3829;50.798;4.358;2022-09-09T03:23:39;10.40;;;3.10;;
7575;SDS011;3829;50.798;4.358;2022-09-09T03:26:05;12.50;;;2.70;;
7575;SDS011;3829;50.798;4.358;2022-09-09T03:28:31;10.93;;;2.60;;
7575;SDS011;3829;50.798;4.358;2022-09-09T03:30:58;11.77;;;3.40;;
7575;SDS011;3829;50.798;4.358;2022-09-09T03:33:25;14.90;;;4.53;;
7575;SDS011;3829;50.798;4.358;2022-09-09T03:35:50;13.43;;;2.97;;
7575;SDS011;3829;50.798;4.358;2022-09-09T03:38:16;8.50;;;2.60;;
7575;SDS011;3829;50.798;4.358;2022-09-09T03:40:48;12.97;;;3.50;;
7575;SDS011;3829;50.798;4.358;2022-09-09T03:43:22;8.37;;;2.57;;
7575;SDS011;3829;50.798;4.358;2022-09-09T03:45:49;11.30;;;3.37;;
7575;SDS011;3829;50.798;4.358;2022-09-09T03:48:18;13.53;;;2.90;;
7575;SDS011;3829;50.798;4.358;2022-09-09T03:50:47;15.83;;;3.10;;
7575;SDS011;3829;50.798;4.358;2022-09-09T03:53:15;10.73;;;3.27;;
7575;SDS011;3829;50.798;4.358;2022-09-09T03:55:49;13.40;;;3.10;;
7575;SDS011;3829;50.798;4.358;2022-09-09T03:58:19;10.33;;;3.00;;
7575;SDS011;3829;50.798;4.358;2022-09-09T04:03:22;15.07;;;4.27;;
7575;SDS011;3829;50.798;4.358;2022-09-09T04:05:49;11.27;;;2.90;;
7575;SDS011;3829;50.798;4.358;2022-09-09T04:08:18;11.50;;;2.77;;
7575;SDS011;3829;50.798;4.358;2022-09-09T04:10:45;13.70;;;3.13;;
7575;SDS011;3829;50.798;4.358;2022-09-09T04:13:14;12.33;;;3.03;;
7575;SDS011;3829;50.798;4.358;2022-09-09T04:15:43;11.37;;;2.53;;
7575;SDS011;3829;50.798;4.358;2022-09-09T04:18:10;11.13;;;2.60;;
7575;SDS011;3829;50.798;4.358;2022-09-09T04:20:36;11.17;;;3.40;;
7575;SDS011;3829;50.798;4.358;2022-09-09T04:23:03;13.97;;;3.27;;
7575;SDS011;3829;50.798;4.358;2022-09-09T04:25:30;7.60;;;2.70;;
7575;SDS011;3829;50.798;4.358;2022-09-09T04:27:56;10.63;;;3.17;;
7575;SDS011;3829;50.798;4.358;2022-09-09T04:30:23;15.30;;;3.83;;
7575;SDS011;3829;50.798;4.358;2022-09-09T04:32:50;11.60;;;3.47;;
7575;SDS011;3829;50.798;4.358;2022-09-09T04:35:16;11.07;;;2.97;;
7575;SDS011;3829;50.798;4.358;2022-09-09T04:37:41;12.43;;;3.60;;
7575;SDS011;3829;50.798;4.358;2022-09-09T04:40:07;12.13;;;3.50;;
7575;SDS011;3829;50.798;4.358;2022-09-09T04:42:35;14.53;;;3.23;;
7575;SDS011;3829;50.798;4.358;2022-09-09T04:45:01;16.20;;;3.67;;
7575;SDS011;3829;50.798;4.358;2022-09-09T04:47:26;12.63;;;3.97;;
7575;SDS011;3829;50.798;4.358;2022-09-09T04:49:52;13.23;;;3.17;;
7575;SDS011;3829;50.798;4.358;2022-09-09T04:52:19;13.13;;;3.40;;
7575;SDS011;3829;50.798;4.358;2022-09-09T04:54:45;15.80;;;3.27;;
7575;SDS011;3829;50.798;4.358;2022-09-09T04:57:11;10.73;;;3.17;;
7575;SDS011;3829;50.798;4.358;2022-09-09T04:59:36;13.57;;;3.27;;
7575;SDS011;3829;50.798;4.358;2022-09-09T05:02:02;8.70;;;2.90;;
7575;SDS011;3829;50.798;4.358;2022-09-09T05:04:28;8.13;;;2.77;;
7575;SDS011;3829;50.798;4.358;2022-09-09T05:06:54;8.43;;;2.73;;
7575;SDS011;3829;50.798;4.358;2022-09-09T05:09:20;13.10;;;3.70;;
7575;SDS011;3829;50.798;4.358;2022-09-09T05:11:46;14.73;;;3.20;;
7575;SDS011;3829;50.798;4.358;2022-09-09T05:14:12;15.63;;;3.47;;
7575;SDS011;3829;50.798;4.358;2022-09-09T05:16:37;12.20;;;4.37;;
7575;SDS011;3829;50.798;4.358;2022-09-09T05:19:03;12.97;;;3.17;;
7575;SDS011;3829;50.798;4.358;2022-09-09T05:21:28;14.10;;;2.87;;
7575;SDS011;3829;50.798;4.358;2022-09-09T05:23:55;13.33;;;3.07;;
7575;SDS011;3829;50.798;4.358;2022-09-09T05:26:22;8.93;;;2.90;;
7575;SDS011;3829;50.798;4.358;2022-09-09T05:28:47;12.87;;;3.67;;
7575;SDS011;3829;50.798;4.358;2022-09-09T05:31:14;15.10;;;3.23;;
7575;SDS011;3829;50.798;4.358;2022-09-09T05:33:41;9.73;;;2.80;;
7575;SDS011;3829;50.798;4.358;2022-09-09T05:36:29;12.23;;;3.13;;
7575;SDS011;3829;50.798;4.358;2022-09-09T05:38:54;12.67;;;3.30;;
7575;SDS011;3829;50.798;4.358;2022-09-09T05:41:20;12.73;;;3.03;;
7575;SDS011;3829;50.798;4.358;2022-09-09T05:43:45;8.97;;;2.63;;
7575;SDS011;3829;50.798;4.358;2022-09-09T05:46:18;10.73;;;3.83;;
7575;SDS011;3829;50.798;4.358;2022-09-09T05:48:45;10.93;;;3.07;;
7575;SDS011;3829;50.798;4.358;2022-09-09T05:51:13;14.97;;;3.03;;
7575;SDS011;3829;50.798;4.358;2022-09-09T05:53:43;14.10;;;2.57;;
7575;SDS011;3829;50.798;4.358;2022-09-09T05:56:13;12.90;;;2.83;;
7575;SDS011;3829;50.798;4.358;2022-09-09T05:58:41;15.77;;;3.53;;
7575;SDS011;3829;50.798;4.358;2022-09-09T06:01:10;11.10;;;2.97;;
7575;SDS011;3829;50.798;4.358;2022-09-09T06:03:39;13.70;;;2.50;;
7575;SDS011;3829;50.798;4.358;2022-09-09T06:06:07;12.43;;;2.70;;
7575;SDS011;3829;50.798;4.358;2022-09-09T06:08:34;8.67;;;2.37;;
7575;SDS011;3829;50.798;4.358;2022-09-09T06:11:04;14.07;;;3.20;;
7575;SDS011;3829;50.798;4.358;2022-09-09T06:13:30;11.23;;;2.30;;
7575;SDS011;3829;50.798;4.358;2022-09-09T06:15:56;13.70;;;3.03;;
7575;SDS011;3829;50.798;4.358;2022-09-09T06:18:23;12.03;;;2.60;;
7575;SDS011;3829;50.798;4.358;2022-09-09T06:20:54;9.27;;;2.70;;
7575;SDS011;3829;50.798;4.358;2022-09-09T06:23:25;14.80;;;2.27;;
7575;SDS011;3829;50.798;4.358;2022-09-09T06:25:51;9.07;;;2.80;;
7575;SDS011;3829;50.798;4.358;2022-09-09T06:28:25;13.90;;;2.43;;
7575;SDS011;3829;50.798;4.358;2022-09-09T06:30:56;10.87;;;2.63;;
7575;SDS011;3829;50.798;4.358;2022-09-09T06:33:26;12.90;;;2.73;;
7575;SDS011;3829;50.798;4.358;2022-09-09T06:35:53;15.50;;;2.87;;
7575;SDS011;3829;50.798;4.358;2022-09-09T06:38:19;15.63;;;2.87;;
7575;SDS011;3829;50.798;4.358;2022-09-09T06:40:54;9.50;;;2.80;;
7575;SDS011;3829;50.798;4.358;2022-09-09T06:43:21;11.33;;;2.47;;
7575;SDS011;3829;50.798;4.358;2022-09-09T06:48:34;7.87;;;2.30;;
7575;SDS011;3829;50.798;4.358;2022-09-09T06:53:27;8.73;;;2.33;;
7575;SDS011;3829;50.798;4.358;2022-09-09T06:55:52;9.53;;;2.27;;
7575;SDS011;3829;50.798;4.358;2022-09-09T06:58:19;8.17;;;1.83;;
7575;SDS011;3829;50.798;4.358;2022-09-09T07:00:47;8.60;;;3.10;;
7575;SDS011;3829;50.798;4.358;2022-09-09T07:03:12;6.53;;;4.17;;
7575;SDS011;3829;50.798;4.358;2022-09-09T07:05:38;12.97;;;3.20;;
7575;SDS011;3829;50.798;4.358;2022-09-09T07:08:04;11.80;;;2.80;;
7575;SDS011;3829;50.798;4.358;2022-09-09T07:10:30;15.07;;;3.13;;
7575;SDS011;3829;50.798;4.358;2022-09-09T07:12:56;9.13;;;2.60;;
7575;SDS011;3829;50.798;4.358;2022-09-09T07:15:21;14.33;;;3.47;;
7575;SDS011;3829;50.798;4.358;2022-09-09T07:17:48;9.17;;;3.10;;
7575;SDS011;3829;50.798;4.358;2022-09-09T07:20:13;9.67;;;2.63;;
7575;SDS011;3829;50.798;4.358;2022-09-09T07:22:40;9.17;;;2.70;;
7575;SDS011;3829;50.798;4.358;2022-09-09T07:25:06;10.10;;;2.70;;
7575;SDS011;3829;50.798;4.358;2022-09-09T07:27:32;9.20;;;2.17;;
7575;SDS011;3829;50.798;4.358;2022-09-09T07:29:58;10.53;;;2.40;;
7575;SDS011;3829;50.798;4.358;2022-09-09T07:32:24;10.70;;;2.87;;
7575;SDS011;3829;50.798;4.358;2022-09-09T07:34:52;9.00;;;2.47;;
7575;SDS011;3829;50.798;4.358;2022-09-09T07:37:17;9.57;;;5.13;;
7575;SDS011;3829;50.798;4.358;2022-09-09T07:39:43;8.63;;;2.60;;
7575;SDS011;3829;50.798;4.358;2022-09-09T07:42:09;9.40;;;2.67;;
7575;SDS011;3829;50.798;4.358;2022-09-09T07:44:38;15.23;;;3.27;;
7575;SDS011;3829;50.798;4.358;2022-09-09T07:47:05;7.23;;;3.00;;
7575;SDS011;3829;50.798;4.358;2022-09-09T07:49:31;12.43;;;3.07;;
7575;SDS011;3829;50.798;4.358;2022-09-09T07:51:57;10.67;;;3.27;;
7575;SDS011;3829;50.798;4.358;2022-09-09T07:54:23;8.87;;;2.83;;
7575;SDS011;3829;50.798;4.358;2022-09-09T07:56:49;14.03;;;3.27;;
7575;SDS011;3829;50.798;4.358;2022-09-09T07:59:16;9.70;;;2.37;;
7575;SDS011;3829;50.798;4.358;2022-09-09T08:01:44;8.13;;;2.90;;
7575;SDS011;3829;50.798;4.358;2022-09-09T08:04:22;8.53;;;2.80;;
7575;SDS011;3829;50.798;4.358;2022-09-09T08:06:49;9.27;;;3.00;;
7575;SDS011;3829;50.798;4.358;2022-09-09T08:09:18;9.77;;;3.10;;
7575;SDS011;3829;50.798;4.358;2022-09-09T08:11:44;13.77;;;3.30;;
7575;SDS011;3829;50.798;4.358;2022-09-09T08:14:10;8.80;;;2.63;;
7575;SDS011;3829;50.798;4.358;2022-09-09T08:16:38;11.93;;;3.13;;
7575;SDS011;3829;50.798;4.358;2022-09-09T08:19:05;12.50;;;2.77;;
7575;SDS011;3829;50.798;4.358;2022-09-09T08:21:32;9.30;;;2.33;;
7575;SDS011;3829;50.798;4.358;2022-09-09T08:24:00;10.63;;;2.93;;
7575;SDS011;3829;50.798;4.358;2022-09-09T08:26:27;12.23;;;3.23;;
7575;SDS011;3829;50.798;4.358;2022-09-09T08:28:55;13.07;;;3.13;;
7575;SDS011;3829;50.798;4.358;2022-09-09T08:31:23;7.00;;;2.80;;
7575;SDS011;3829;50.798;4.358;2022-09-09T08:33:50;9.40;;;2.30;;
7575;SDS011;3829;50.798;4.358;2022-09-09T08:36:20;9.33;;;2.90;;
7575;SDS011;3829;50.798;4.358;2022-09-09T08:38:47;9.13;;;2.50;;
7575;SDS011;3829;50.798;4.358;2022-09-09T08:41:24;12.87;;;2.70;;
7575;SDS011;3829;50.798;4.358;2022-09-09T08:44:14;11.10;;;3.37;;
7575;SDS011;3829;50.798;4.358;2022-09-09T08:50:06;12.03;;;5.87;;
7575;SDS011;3829;50.798;4.358;2022-09-09T08:52:55;13.23;;;4.20;;
7575;SDS011;3829;50.798;4.358;2022-09-09T08:55:41;9.47;;;5.07;;
7575;SDS011;3829;50.798;4.358;2022-09-09T08:58:33;8.67;;;2.50;;
7575;SDS011;3829;50.798;4.358;2022-09-09T09:01:02;10.83;;;3.77;;
7575;SDS011;3829;50.798;4.358;2022-09-09T09:06:21;9.30;;;3.07;;
7575;SDS011;3829;50.798;4.358;2022-09-09T09:08:59;10.07;;;4.00;;
7575;SDS011;3829;50.798;4.358;2022-09-09T09:11:36;13.27;;;8.97;;
7575;SDS011;3829;50.798;4.358;2022-09-09T09:14:26;9.80;;;4.13;;
7575;SDS011;3829;50.798;4.358;2022-09-09T09:19:42;7.23;;;3.47;;
7575;SDS011;3829;50.798;4.358;2022-09-09T09:22:18;9.40;;;3.40;;
7575;SDS011;3829;50.798;4.358;2022-09-09T09:24:55;12.60;;;3.17;;
7575;SDS011;3829;50.798;4.358;2022-09-09T09:30:14;12.27;;;3.60;;
7575;SDS011;3829;50.798;4.358;2022-09-09T09:33:06;12.97;;;3.67;;
7575;SDS011;3829;50.798;4.358;2022-09-09T09:35:33;12.87;;;3.70;;
7575;SDS011;3829;50.798;4.358;2022-09-09T09:37:59;14.73;;;3.40;;
7575;SDS011;3829;50.798;4.358;2022-09-09T09:40:26;13.10;;;2.60;;
7575;SDS011;3829;50.798;4.358;2022-09-09T09:45:23;11.60;;;3.37;;
7575;SDS011;3829;50.798;4.358;2022-09-09T09:47:59;9.33;;;2.73;;
7575;SDS011;3829;50.798;4.358;2022-09-09T09:50:29;9.43;;;2.87;;
7575;SDS011;3829;50.798;4.358;2022-09-09T09:52:57;10.93;;;3.47;;
7575;SDS011;3829;50.798;4.358;2022-09-09T09:55:29;12.53;;;2.87;;
7575;SDS011;3829;50.798;4.358;2022-09-09T09:58:04;9.13;;;2.70;;
7575;SDS011;3829;50.798;4.358;2022-09-09T10:00:30;9.73;;;3.40;;
7575;SDS011;3829;50.798;4.358;2022-09-09T10:02:59;9.23;;;2.80;;
7575;SDS011;3829;50.798;4.358;2022-09-09T10:05:27;5.77;;;2.53;;
7575;SDS011;3829;50.798;4.358;2022-09-09T10:08:10;8.93;;;3.10;;
7575;SDS011;3829;50.798;4.358;2022-09-09T10:10:43;8.57;;;3.20;;
7575;SDS011;3829;50.798;4.358;2022-09-09T10:13:28;10.03;;;2.70;;
7575;SDS011;3829;50.798;4.358;2022-09-09T10:18:35;11.37;;;2.87;;
7575;SDS011;3829;50.798;4.358;2022-09-09T10:21:20;7.10;;;3.20;;
7575;SDS011;3829;50.798;4.358;2022-09-09T10:24:07;7.70;;;2.90;;
7575;SDS011;3829;50.798;4.358;2022-09-09T10:49:58;9.80;;;2.60;;
7575;SDS011;3829;50.798;4.358;2022-09-09T10:54:41;8.20;;;2.37;;
7575;SDS011;3829;50.798;4.358;2022-09-09T10:57:13;15.00;;;2.50;;
7575;SDS011;3829;50.798;4.358;2022-09-09T10:59:50;7.63;;;2.70;;
7575;SDS011;3829;50.798;4.358;2022-09-09T11:02:31;8.57;;;2.50;;
7575;SDS011;3829;50.798;4.358;2022-09-09T11:07:40;6.23;;;2.53;;
7575;SDS011;3829;50.798;4.358;2022-09-09T11:10:17;4.40;;;1.93;;
7575;SDS011;3829;50.798;4.358;2022-09-09T11:12:57;8.10;;;2.37;;
7575;SDS011;3829;50.798;4.358;2022-09-09T11:15:39;6.43;;;1.90;;
7575;SDS011;3829;50.798;4.358;2022-09-09T11:18:11;7.90;;;2.50;;
7575;SDS011;3829;50.798;4.358;2022-09-09T11:20:43;6.83;;;1.90;;
7575;SDS011;3829;50.798;4.358;2022-09-09T11:23:13;7.00;;;2.50;;
7575;SDS011;3829;50.798;4.358;2022-09-09T11:25:43;5.67;;;1.93;;
7575;SDS011;3829;50.798;4.358;2022-09-09T11:41:55;8.27;;;2.47;;
7575;SDS011;3829;50.798;4.358;2022-09-09T11:44:39;10.50;;;2.17;;
7575;SDS011;3829;50.798;4.358;2022-09-09T11:47:26;7.77;;;2.00;;
7575;SDS011;3829;50.798;4.358;2022-09-09T11:52:41;10.53;;;2.30;;
7575;SDS011;3829;50.798;4.358;2022-09-09T11:55:27;7.23;;;2.20;;
7575;SDS011;3829;50.798;4.358;2022-09-09T11:58:01;6.10;;;2.00;;
7575;SDS011;3829;50.798;4.358;2022-09-09T12:03:00;6.40;;;2.20;;
7575;SDS011;3829;50.798;4.358;2022-09-09T12:05:39;4.33;;;1.50;;
7575;SDS011;3829;50.798;4.358;2022-09-09T12:08:09;7.90;;;1.60;;
7575;SDS011;3829;50.798;4.358;2022-09-09T12:10:52;5.17;;;1.93;;
7575;SDS011;3829;50.798;4.358;2022-09-09T12:13:23;5.90;;;1.80;;
7575;SDS011;3829;50.798;4.358;2022-09-09T12:15:51;5.53;;;1.80;;
7575;SDS011;3829;50.798;4.358;2022-09-09T12:18:26;3.73;;;1.90;;
7575;SDS011;3829;50.798;4.358;2022-09-09T12:23:50;6.33;;;1.90;;
7575;SDS011;3829;50.798;4.358;2022-09-09T12:26:34;7.77;;;2.07;;
7575;SDS011;3829;50.798;4.358;2022-09-09T12:29:37;8.27;;;1.60;;
7575;SDS011;3829;50.798;4.358;2022-09-09T12:32:20;4.87;;;1.77;;
7575;SDS011;3829;50.798;4.358;2022-09-09T12:37:27;6.97;;;1.60;;
7575;SDS011;3829;50.798;4.358;2022-09-09T12:39:58;7.43;;;1.90;;
7575;SDS011;3829;50.798;4.358;2022-09-09T12:42:25;3.90;;;1.43;;
7575;SDS011;3829;50.798;4.358;2022-09-09T12:44:53;10.17;;;1.87;;
7575;SDS011;3829;50.798;4.358;2022-09-09T12:47:25;6.43;;;1.77;;
7575;SDS011;3829;50.798;4.358;2022-09-09T12:50:03;5.77;;;1.53;;
7575;SDS011;3829;50.798;4.358;2022-09-09T12:52:34;2.90;;;1.37;;
7575;SDS011;3829;50.798;4.358;2022-09-09T12:55:03;3.40;;;1.37;;
7575;SDS011;3829;50.798;4.358;2022-09-09T12:57:33;6.13;;;1.60;;
7575;SDS011;3829;50.798;4.358;2022-09-09T13:00:07;4.90;;;1.43;;
7575;SDS011;3829;50.798;4.358;2022-09-09T13:02:46;7.33;;;1.60;;
7575;SDS011;3829;50.798;4.358;2022-09-09T13:05:16;4.47;;;1.50;;
7575;SDS011;3829;50.798;4.358;2022-09-09T13:07:44;5.50;;;1.50;;
7575;SDS011;3829;50.798;4.358;2022-09-09T13:10:13;5.03;;;1.47;;
7575;SDS011;3829;50.798;4.358;2022-09-09T13:12:41;6.90;;;1.43;;
7575;SDS011;3829;50.798;4.358;2022-09-09T13:15:26;6.47;;;2.23;;
7575;SDS011;3829;50.798;4.358;2022-09-09T13:17:55;4.47;;;1.60;;
7575;SDS011;3829;50.798;4.358;2022-09-09T13:20:23;6.97;;;1.97;;
7575;SDS011;3829;50.798;4.358;2022-09-09T13:22:50;3.33;;;1.50;;
7575;SDS011;3829;50.798;4.358;2022-09-09T13:25:19;4.40;;;1.60;;
7575;SDS011;3829;50.798;4.358;2022-09-09T13:30:19;2.57;;;1.20;;
7575;SDS011;3829;50.798;4.358;2022-09-09T13:38:14;3.87;;;1.50;;
7575;SDS011;3829;50.798;4.358;2022-09-09T13:40:40;4.00;;;1.40;;
7575;SDS011;3829;50.798;4.358;2022-09-09T13:43:20;7.13;;;1.70;;
7575;SDS011;3829;50.798;4.358;2022-09-09T13:45:58;3.17;;;1.77;;
7575;SDS011;3829;50.798;4.358;2022-09-09T13:48:25;5.30;;;1.47;;
7575;SDS011;3829;50.798;4.358;2022-09-09T13:50:58;5.43;;;1.57;;
7575;SDS011;3829;50.798;4.358;2022-09-09T13:53:26;3.50;;;1.20;;
7575;SDS011;3829;50.798;4.358;2022-09-09T13:55:52;3.47;;;1.10;;
7575;SDS011;3829;50.798;4.358;2022-09-09T13:58:18;4.70;;;1.20;;
7575;SDS011;3829;50.798;4.358;2022-09-09T14:00:45;4.40;;;1.47;;
7575;SDS011;3829;50.798;4.358;2022-09-09T14:03:11;4.53;;;1.57;;
7575;SDS011;3829;50.798;4.358;2022-09-09T14:05:37;4.07;;;1.50;;
7575;SDS011;3829;50.798;4.358;2022-09-09T14:08:03;2.80;;;1.27;;
7575;SDS011;3829;50.798;4.358;2022-09-09T14:10:29;4.30;;;1.20;;
7575;SDS011;3829;50.798;4.358;2022-09-09T14:12:55;4.27;;;1.70;;
7575;SDS011;3829;50.798;4.358;2022-09-09T14:15:21;3.40;;;1.57;;
7575;SDS011;3829;50.798;4.358;2022-09-09T14:17:47;8.40;;;1.53;;
7575;SDS011;3829;50.798;4.358;2022-09-09T14:20:13;4.20;;;1.50;;
7575;SDS011;3829;50.798;4.358;2022-09-09T14:22:40;3.37;;;1.47;;
7575;SDS011;3829;50.798;4.358;2022-09-09T14:25:06;5.10;;;2.00;;
7575;SDS011;3829;50.798;4.358;2022-09-09T14:27:33;4.33;;;1.60;;
7575;SDS011;3829;50.798;4.358;2022-09-09T14:29:59;4.83;;;1.70;;
7575;SDS011;3829;50.798;4.358;2022-09-09T14:32:25;6.57;;;1.63;;
7575;SDS011;3829;50.798;4.358;2022-09-09T14:34:51;3.77;;;1.63;;
7575;SDS011;3829;50.798;4.358;2022-09-09T14:37:17;5.40;;;1.60;;
7575;SDS011;3829;50.798;4.358;2022-09-09T14:39:45;4.97;;;1.30;;
7575;SDS011;3829;50.798;4.358;2022-09-09T14:42:12;5.97;;;1.67;;
7575;SDS011;3829;50.798;4.358;2022-09-09T14:44:38;5.57;;;1.50;;
7575;SDS011;3829;50.798;4.358;2022-09-09T14:47:05;3.10;;;1.17;;
7575;SDS011;3829;50.798;4.358;2022-09-09T14:49:32;6.30;;;1.50;;
7575;SDS011;3829;50.798;4.358;2022-09-09T14:51:57;5.70;;;1.43;;
7575;SDS011;3829;50.798;4.358;2022-09-09T14:54:23;5.70;;;1.70;;
7575;SDS011;3829;50.798;4.358;2022-09-09T14:56:49;3.53;;;1.40;;
7575;SDS011;3829;50.798;4.358;2022-09-09T14:59:14;10.13;;;1.67;;
7575;SDS011;3829;50.798;4.358;2022-09-09T15:01:40;4.17;;;1.10;;
7575;SDS011;3829;50.798;4.358;2022-09-09T15:04:06;3.73;;;1.70;;
7575;SDS011;3829;50.798;4.358;2022-09-09T15:06:33;6.20;;;1.53;;
7575;SDS011;3829;50.798;4.358;2022-09-09T15:09:01;4.07;;;1.43;;
7575;SDS011;3829;50.798;4.358;2022-09-09T15:11:28;5.87;;;1.90;;
7575;SDS011;3829;50.798;4.358;2022-09-09T15:13:58;5.83;;;1.70;;
7575;SDS011;3829;50.798;4.358;2022-09-09T15:16:25;8.27;;;1.40;;
7575;SDS011;3829;50.798;4.358;2022-09-09T15:18:53;3.37;;;1.27;;
7575;SDS011;3829;50.798;4.358;2022-09-09T15:21:24;7.23;;;1.30;;
7575;SDS011;3829;50.798;4.358;2022-09-09T15:23:51;4.57;;;1.50;;
7575;SDS011;3829;50.798;4.358;2022-09-09T15:26:17;4.17;;;1.80;;
7575;SDS011;3829;50.798;4.358;2022-09-09T15:28:45;4.20;;;1.60;;
7575;SDS011;3829;50.798;4.358;2022-09-09T15:31:15;6.17;;;1.90;;
7575;SDS011;3829;50.798;4.358;2022-09-09T15:33:49;4.17;;;1.50;;
7575;SDS011;3829;50.798;4.358;2022-09-09T15:36:16;9.60;;;1.83;;
7575;SDS011;3829;50.798;4.358;2022-09-09T15:38:44;3.27;;;1.30;;
7575;SDS011;3829;50.798;4.358;2022-09-09T15:41:11;4.93;;;2.23;;
7575;SDS011;3829;50.798;4.358;2022-09-09T15:43:37;5.23;;;1.53;;
7575;SDS011;3829;50.798;4.358;2022-09-09T15:46:26;4.53;;;1.30;;
7575;SDS011;3829;50.798;4.358;2022-09-09T15:49:09;3.83;;;1.37;;
7575;SDS011;3829;50.798;4.358;2022-09-09T15:51:47;5.20;;;1.20;;
7575;SDS011;3829;50.798;4.358;2022-09-09T15:54:23;4.30;;;1.40;;
7575;SDS011;3829;50.798;4.358;2022-09-09T15:56:53;5.03;;;1.57;;
7575;SDS011;3829;50.798;4.358;2022-09-09T15:59:21;3.73;;;1.40;;
7575;SDS011;3829;50.798;4.358;2022-09-09T16:01:47;5.07;;;1.70;;
7575;SDS011;3829;50.798;4.358;2022-09-09T16:04:16;3.27;;;1.37;;
7575;SDS011;3829;50.798;4.358;2022-09-09T16:06:48;4.50;;;1.50;;
7575;SDS011;3829;50.798;4.358;2022-09-09T16:09:15;5.33;;;1.50;;
7575;SDS011;3829;50.798;4.358;2022-09-09T16:11:41;5.37;;;1.50;;
7575;SDS011;3829;50.798;4.358;2022-09-09T16:14:06;6.17;;;1.80;;
7575;SDS011;3829;50.798;4.358;2022-09-09T16:16:32;3.10;;;1.30;;
7575;SDS011;3829;50.798;4.358;2022-09-09T16:19:00;5.43;;;1.40;;
7575;SDS011;3829;50.798;4.358;2022-09-09T16:21:31;7.73;;;2.00;;
7575;SDS011;3829;50.798;4.358;2022-09-09T16:24:00;14.33;;;2.47;;
7575;SDS011;3829;50.798;4.358;2022-09-09T16:26:30;10.37;;;1.80;;
7575;SDS011;3829;50.798;4.358;2022-09-09T16:28:57;11.70;;;1.90;;
7575;SDS011;3829;50.798;4.358;2022-09-09T16:31:24;4.20;;;1.93;;
7575;SDS011;3829;50.798;4.358;2022-09-09T16:33:52;5.37;;;1.50;;
7575;SDS011;3829;50.798;4.358;2022-09-09T16:36:18;5.23;;;1.70;;
7575;SDS011;3829;50.798;4.358;2022-09-09T16:38:45;3.43;;;1.40;;
7575;SDS011;3829;50.798;4.358;2022-09-09T16:41:12;4.93;;;1.70;;
7575;SDS011;3829;50.798;4.358;2022-09-09T16:43:39;4.47;;;1.63;;
7575;SDS011;3829;50.798;4.358;2022-09-09T16:46:15;2.50;;;1.20;;
7575;SDS011;3829;50.798;4.358;2022-09-09T16:48:43;3.07;;;1.40;;
7575;SDS011;3829;50.798;4.358;2022-09-09T16:51:14;1.77;;;1.50;;
7575;SDS011;3829;50.798;4.358;2022-09-09T16:53:44;3.47;;;1.60;;
7575;SDS011;3829;50.798;4.358;2022-09-09T16:56:12;2.77;;;1.40;;
7575;SDS011;3829;50.798;4.358;2022-09-09T16:58:38;5.30;;;1.70;;
7575;SDS011;3829;50.798;4.358;2022-09-09T17:01:04;5.30;;;1.70;;
7575;SDS011;3829;50.798;4.358;2022-09-09T17:03:30;6.17;;;1.60;;
7575;SDS011;3829;50.798;4.358;2022-09-09T17:05:59;2.87;;;1.80;;
7575;SDS011;3829;50.798;4.358;2022-09-09T17:08:31;8.37;;;2.43;;
7575;SDS011;3829;50.798;4.358;2022-09-09T17:10:58;9.83;;;3.63;;
7575;SDS011;3829;50.798;4.358;2022-09-09T17:13:24;4.53;;;2.10;;
7575;SDS011;3829;50.798;4.358;2022-09-09T17:15:50;8.07;;;2.70;;
7575;SDS011;3829;50.798;4.358;2022-09-09T17:18:16;9.90;;;2.57;;
7575;SDS011;3829;50.798;4.358;2022-09-09T17:20:42;6.87;;;2.40;;
7575;SDS011;3829;50.798;4.358;2022-09-09T17:23:09;7.83;;;2.37;;
7575;SDS011;3829;50.798;4.358;2022-09-09T17:25:36;7.57;;;2.37;;
7575;SDS011;3829;50.798;4.358;2022-09-09T17:28:03;5.90;;;1.93;;
7575;SDS011;3829;50.798;4.358;2022-09-09T17:30:29;7.73;;;2.17;;
7575;SDS011;3829;50.798;4.358;2022-09-09T17:32:58;6.30;;;1.97;;
7575;SDS011;3829;50.798;4.358;2022-09-09T17:35:24;5.30;;;2.00;;
7575;SDS011;3829;50.798;4.358;2022-09-09T17:37:52;6.40;;;2.00;;
7575;SDS011;3829;50.798;4.358;2022-09-09T17:40:18;9.57;;;2.03;;
7575;SDS011;3829;50.798;4.358;2022-09-09T17:42:45;6.07;;;2.20;;
7575;SDS011;3829;50.798;4.358;2022-09-09T17:45:11;10.83;;;2.70;;
7575;SDS011;3829;50.798;4.358;2022-09-09T17:47:36;7.83;;;2.27;;
7575;SDS011;3829;50.798;4.358;2022-09-09T17:50:02;9.53;;;2.10;;
7575;SDS011;3829;50.798;4.358;2022-09-09T17:52:28;9.50;;;2.40;;